Terminal Aerodrome Forecast
Issued by NWS Tallahassee, FL

Home | Current Version | Previous Version | Text Only | Print | Product List | Glossary On
Versions: 1 2 3 4 5 6 7 8 9 10 11 12 13
000
FTUS42 KTAE 291700
TAFTLH
TAF
KTLH 291726Z 2918/3018 12011KT P6SM VCTS BKN040CB
      TEMPO 2918/2922 VRB15G25KT 2SM +TSRA BKN025CB OVC040
     FM300100 VRB03KT P6SM FEW030 BKN250
     FM301500 16006KT P6SM BKN040 BKN250=

USA.gov is the U.S. government's official web portal to all federal, state and local government web resources and services.